createdAt,value
2022-08-02T00:00:09.641Z,95360.38
2022-08-02T00:02:36.557Z,95356.97
2022-08-02T00:05:03.345Z,95362.47
2022-08-02T00:07:30.048Z,95360.78
2022-08-02T00:09:56.649Z,95356.00
2022-08-02T00:12:23.486Z,95352.69
2022-08-02T00:14:50.167Z,95352.06
2022-08-02T00:17:16.840Z,95354.47
2022-08-02T00:19:44.383Z,95355.00
2022-08-02T00:22:11.698Z,95359.06
2022-08-02T00:24:38.599Z,95354.28
2022-08-02T00:27:09.221Z,95358.88
2022-08-02T00:29:42.608Z,95355.63
2022-08-02T00:32:19.622Z,95353.28
2022-08-02T00:34:46.429Z,95361.53
2022-08-02T00:37:13.158Z,95360.22
2022-08-02T00:39:39.969Z,95362.81
2022-08-02T00:42:06.886Z,95362.28
2022-08-02T00:44:33.735Z,95368.13
2022-08-02T00:47:01.023Z,95362.09
2022-08-02T00:49:27.751Z,95367.50
2022-08-02T00:51:54.424Z,95372.16
2022-08-02T00:54:21.454Z,95374.94
2022-08-02T00:56:49.690Z,95368.13
2022-08-02T00:59:16.628Z,95363.53
2022-08-02T01:01:56.141Z,95368.22
2022-08-02T01:04:31.134Z,95361.03
2022-08-02T01:07:11.845Z,95357.59
2022-08-02T01:09:40.505Z,95353.47
2022-08-02T01:12:07.685Z,95350.41
2022-08-02T01:14:34.546Z,95353.41
2022-08-02T01:17:12.491Z,95355.38
2022-08-02T01:20:03.054Z,95355.88
2022-08-02T01:22:59.548Z,95356.88
2022-08-02T01:25:58.021Z,95354.47
2022-08-02T01:28:30.375Z,95367.09
2022-08-02T01:31:06.656Z,95357.72
2022-08-02T01:33:49.706Z,95362.66
2022-08-02T01:36:19.047Z,95361.19
2022-08-02T01:38:50.506Z,95349.06
2022-08-02T01:41:21.404Z,95349.53
2022-08-02T01:43:51.508Z,95339.84
2022-08-02T01:46:19.358Z,95334.56
2022-08-02T01:48:48.797Z,95333.09
2022-08-02T01:51:18.691Z,95333.91
2022-08-02T01:53:48.442Z,95333.09
2022-08-02T01:56:16.470Z,95333.56
2022-08-02T01:58:45.871Z,95335.16
2022-08-02T02:01:18.378Z,95334.63
2022-08-02T02:03:47.443Z,95328.72
2022-08-02T02:06:16.265Z,95328.72
2022-08-02T02:08:44.730Z,95331.94
2022-08-02T02:12:09.456Z,95330.19
2022-08-02T02:14:00.815Z,95323.72
2022-08-02T02:16:28.329Z,95325.88
2022-08-02T02:18:55.334Z,95327.53
2022-08-02T02:21:22.271Z,95327.88
2022-08-02T02:23:50.780Z,95323.66
2022-08-02T02:26:29.370Z,95331.75
2022-08-02T02:29:01.667Z,95337.88
2022-08-02T02:31:32.609Z,95334.75
2022-08-02T02:34:04.393Z,95340.13
2022-08-02T02:36:34.800Z,95341.47
2022-08-02T02:39:04.816Z,95337.88
2022-08-02T02:41:40.881Z,95337.88
2022-08-02T02:44:11.212Z,95335.28
2022-08-02T02:46:38.346Z,95342.56
2022-08-02T02:49:05.510Z,95342.56
2022-08-02T02:51:32.851Z,95340.41
2022-08-02T02:54:33.645Z,95342.03
2022-08-02T02:56:47.981Z,95347.59
2022-08-02T02:59:15.837Z,95344.34
2022-08-02T03:01:57.296Z,95340.25
2022-08-02T03:04:27.030Z,95339.78
2022-08-02T03:06:54.131Z,95340.13
2022-08-02T03:09:20.816Z,95343.09
2022-08-02T03:11:47.936Z,95343.09
2022-08-02T03:14:15.419Z,95348.66
2022-08-02T03:16:47.276Z,95342.50
2022-08-02T03:19:14.682Z,95340.09
2022-08-02T03:21:45.110Z,95347.00
2022-08-02T03:24:12.681Z,95345.25
2022-08-02T03:26:40.353Z,95353.25
2022-08-02T03:29:09.946Z,95347.41
2022-08-02T03:31:41.586Z,95342.34
2022-08-02T03:34:08.457Z,95337.16
2022-08-02T03:36:36.448Z,95339.94
2022-08-02T03:39:04.882Z,95335.53
2022-08-02T03:41:33.163Z,95341.25
2022-08-02T03:44:00.795Z,95337.75
2022-08-02T03:46:27.890Z,95337.56
2022-08-02T03:48:55.948Z,95337.31
2022-08-02T03:51:23.438Z,95337.06
2022-08-02T03:53:50.691Z,95333.75
2022-08-02T03:56:17.683Z,95348.53
2022-08-02T03:58:49.091Z,95343.66
2022-08-02T04:01:16.573Z,95344.28
2022-08-02T04:03:43.434Z,95345.41
2022-08-02T04:06:10.146Z,95349.44
2022-08-02T04:08:38.668Z,95350.06
2022-08-02T04:11:25.613Z,95356.34
2022-08-02T04:13:53.499Z,95364.13
2022-08-02T04:16:39.673Z,95365.88
2022-08-02T04:19:09.090Z,95359.38
2022-08-02T04:21:51.506Z,95357.44
2022-08-02T04:24:32.097Z,95359.22
2022-08-02T04:27:01.100Z,95354.84
2022-08-02T04:29:35.751Z,95356.78
2022-08-02T04:32:03.675Z,95358.06
2022-08-02T04:34:30.779Z,95371.06
2022-08-02T04:36:58.810Z,95376.91
2022-08-02T04:39:25.792Z,95382.94
2022-08-02T04:41:57.427Z,95377.00
2022-08-02T04:44:24.905Z,95381.00
2022-08-02T04:46:52.182Z,95385.66
2022-08-02T04:49:18.988Z,95385.81
2022-08-02T04:51:45.720Z,95385.41
2022-08-02T04:54:12.935Z,95386.78
2022-08-02T04:56:40.172Z,95380.53
2022-08-02T04:59:07.319Z,95380.31
2022-08-02T05:01:35.666Z,95379.94
2022-08-02T05:04:03.370Z,95376.69
2022-08-02T05:06:30.071Z,95381.44
2022-08-02T05:08:56.858Z,95383.41
2022-08-02T05:11:36.093Z,95381.69
2022-08-02T05:14:04.736Z,95374.34
2022-08-02T05:16:32.362Z,95379.31
2022-08-02T05:19:03.301Z,95378.06
2022-08-02T05:21:31.742Z,95383.31
2022-08-02T05:23:58.571Z,95375.50
2022-08-02T05:26:25.178Z,95385.69
2022-08-02T05:28:51.785Z,95393.16
2022-08-02T05:31:18.472Z,95388.66
2022-08-02T05:33:45.056Z,95391.81
2022-08-02T05:36:11.718Z,95403.44
2022-08-02T05:38:38.381Z,95404.69
2022-08-02T05:41:05.938Z,95408.03
2022-08-02T05:43:33.176Z,95413.09
2022-08-02T05:46:00.245Z,95407.81
2022-08-02T05:48:31.447Z,95408.97
2022-08-02T05:51:23.991Z,95406.44
2022-08-02T05:53:59.232Z,95402.44
2022-08-02T05:56:36.324Z,95404.03
2022-08-02T05:59:12.180Z,95395.75
2022-08-02T06:01:40.795Z,95405.72
2022-08-02T06:04:09.921Z,95405.22
2022-08-02T06:06:37.752Z,95409.47
2022-08-02T06:09:09.936Z,95414.09
2022-08-02T06:11:39.526Z,95413.75
2022-08-02T06:14:07.713Z,95414.03
2022-08-02T06:16:41.908Z,95412.72
2022-08-02T06:19:12.743Z,95413.16
2022-08-02T06:22:34.575Z,95416.22
2022-08-02T06:24:29.502Z,95414.47
2022-08-02T06:26:57.395Z,95404.97
2022-08-02T06:29:27.252Z,95412.09
2022-08-02T06:31:53.993Z,95405.31
2022-08-02T06:34:20.748Z,95414.84
2022-08-02T06:36:57.435Z,95408.59
2022-08-02T06:39:44.739Z,95418.50
2022-08-02T06:42:15.405Z,95413.03
2022-08-02T06:44:48.704Z,95412.00
2022-08-02T06:47:17.633Z,95416.94
2022-08-02T06:49:52.708Z,95418.97
2022-08-02T06:52:30.836Z,95417.22
2022-08-02T06:55:02.092Z,95415.81
2022-08-02T06:57:30.256Z,95414.06
2022-08-02T06:59:58.404Z,95412.59
2022-08-02T07:02:25.203Z,95417.63
2022-08-02T07:04:51.910Z,95420.66
2022-08-02T07:07:18.755Z,95416.84
2022-08-02T07:09:56.415Z,95418.06
2022-08-02T07:12:30.062Z,95422.69
2022-08-02T07:14:57.323Z,95422.28
2022-08-02T07:17:23.930Z,95417.44
2022-08-02T07:19:50.590Z,95421.69
2022-08-02T07:22:19.250Z,95419.44
2022-08-02T07:24:45.851Z,95416.22
2022-08-02T07:27:13.156Z,95414.38
2022-08-02T07:29:46.876Z,95411.72
2022-08-02T07:32:18.635Z,95405.00
2022-08-02T07:34:50.811Z,95408.09
2022-08-02T07:37:53.324Z,95408.56
2022-08-02T07:40:13.355Z,95405.31
2022-08-02T07:42:41.666Z,95403.44
2022-08-02T07:45:08.593Z,95408.84
2022-08-02T07:47:42.429Z,95406.44
2022-08-02T07:50:11.750Z,95412.84
2022-08-02T07:52:39.866Z,95412.53
2022-08-02T07:55:07.049Z,95416.81
2022-08-02T07:57:33.760Z,95412.81
2022-08-02T08:00:00.430Z,95409.31
2022-08-02T08:02:27.166Z,95409.09
2022-08-02T08:04:54.056Z,95409.91
2022-08-02T08:07:20.797Z,95409.69
2022-08-02T08:09:48.245Z,95407.78
2022-08-02T08:12:16.363Z,95408.69
2022-08-02T08:14:44.223Z,95415.44
2022-08-02T08:17:11.253Z,95404.69
2022-08-02T08:19:51.446Z,95406.28
2022-08-02T08:22:21.546Z,95401.34
2022-08-02T08:24:49.155Z,95407.91
2022-08-02T08:27:19.762Z,95396.13
2022-08-02T08:29:46.508Z,95395.31
2022-08-02T08:32:17.123Z,95396.50
2022-08-02T08:34:45.909Z,95400.00
2022-08-02T08:37:16.729Z,95405.38
2022-08-02T08:39:57.955Z,95401.94
2022-08-02T08:42:30.796Z,95400.56
2022-08-02T08:44:58.883Z,95397.44
2022-08-02T08:47:42.899Z,95390.03
2022-08-02T08:50:24.132Z,95400.50
2022-08-02T08:53:01.682Z,95400.00
2022-08-02T08:55:29.572Z,95399.06
2022-08-02T08:57:58.868Z,95398.53
2022-08-02T09:00:26.372Z,95401.06
2022-08-02T09:02:53.410Z,95393.97
2022-08-02T09:05:20.138Z,95391.69
2022-08-02T09:07:51.188Z,95398.75
2022-08-02T09:10:41.119Z,95393.25
2022-08-02T09:13:39.097Z,95400.41
2022-08-02T09:16:12.598Z,95399.69
2022-08-02T09:18:45.709Z,95401.44
2022-08-02T09:21:14.959Z,95407.09
2022-08-02T09:23:52.817Z,95398.78
2022-08-02T09:26:22.180Z,95392.63
2022-08-02T09:28:52.462Z,95393.69
2022-08-02T09:31:21.717Z,95396.94
2022-08-02T09:33:54.396Z,95400.06
2022-08-02T09:36:22.500Z,95400.06
2022-08-02T09:39:01.702Z,95399.34
2022-08-02T09:41:31.083Z,95394.44
2022-08-02T09:44:05.028Z,95399.91
2022-08-02T09:46:41.030Z,95396.03
2022-08-02T09:49:17.217Z,95398.09
2022-08-02T09:51:46.778Z,95398.47
2022-08-02T09:54:23.237Z,95392.72
2022-08-02T09:56:52.392Z,95399.38
2022-08-02T09:59:21.156Z,95389.72
2022-08-02T10:01:51.364Z,95392.63
2022-08-02T10:04:31.476Z,95391.28
2022-08-02T10:06:59.608Z,95392.44
2022-08-02T10:09:28.704Z,95396.63
2022-08-02T10:11:55.967Z,95390.34
2022-08-02T10:14:23.761Z,95390.22
2022-08-02T10:16:50.706Z,95396.63
2022-08-02T10:19:17.398Z,95394.13
2022-08-02T10:22:12.301Z,95395.84
2022-08-02T10:24:47.404Z,95387.03
2022-08-02T10:27:21.695Z,95390.97
2022-08-02T10:29:54.360Z,95394.44
2022-08-02T10:32:37.980Z,95387.06
2022-08-02T10:35:19.624Z,95386.09
2022-08-02T10:38:01.028Z,95379.16
2022-08-02T10:40:52.976Z,95381.56
2022-08-02T10:43:31.467Z,95372.38
2022-08-02T10:46:34.395Z,95371.47
2022-08-02T10:52:00.714Z,95360.91
2022-08-02T10:54:32.089Z,95366.75
2022-08-02T10:57:01.532Z,95360.91
2022-08-02T10:59:32.496Z,95355.91
2022-08-02T11:02:02.117Z,95353.34
2022-08-02T11:04:37.772Z,95354.75
2022-08-02T11:07:07.110Z,95353.78
2022-08-02T11:09:34.064Z,95341.63
2022-08-02T11:12:14.583Z,95344.59
2022-08-02T11:14:44.346Z,95342.59
2022-08-02T11:17:18.699Z,95334.34
2022-08-02T11:20:13.240Z,95336.81
2022-08-02T11:22:40.669Z,95328.53
2022-08-02T11:25:22.764Z,95330.25
2022-08-02T11:28:08.899Z,95335.03
2022-08-02T11:30:36.235Z,95330.72
2022-08-02T11:33:03.582Z,95332.09
2022-08-02T11:35:38.143Z,95324.91
2022-08-02T11:38:19.946Z,95324.81
2022-08-02T11:40:48.998Z,95329.16
2022-08-02T11:43:17.310Z,95336.28
2022-08-02T11:45:44.207Z,95326.88
2022-08-02T11:48:10.860Z,95329.69
2022-08-02T11:50:37.559Z,95336.50
2022-08-02T11:53:13.659Z,95333.56
2022-08-02T11:55:40.653Z,95331.97
2022-08-02T11:58:11.407Z,95334.31
2022-08-02T12:00:38.755Z,95331.13
2022-08-02T12:03:06.549Z,95325.34
2022-08-02T12:06:05.069Z,95328.41
2022-08-02T12:08:25.975Z,95331.09
2022-08-02T12:10:52.659Z,95330.66
2022-08-02T12:13:19.428Z,95332.88
2022-08-02T12:15:47.114Z,95332.78
2022-08-02T12:18:35.038Z,95329.44
2022-08-02T12:21:03.184Z,95323.06
2022-08-02T12:23:30.191Z,95326.13
2022-08-02T12:26:03.205Z,95329.63
2022-08-02T12:28:34.835Z,95329.53
2022-08-02T12:31:02.323Z,95330.97
2022-08-02T12:33:44.431Z,95319.13
2022-08-02T12:36:19.313Z,95318.88
2022-08-02T12:38:52.449Z,95315.72
2022-08-02T12:41:31.824Z,95317.69
2022-08-02T12:43:59.486Z,95321.94
2022-08-02T12:46:26.166Z,95317.25
2022-08-02T12:49:16.700Z,95311.75
2022-08-02T12:51:56.714Z,95302.31
2022-08-02T12:54:31.477Z,95295.41
2022-08-02T12:57:11.046Z,95304.03
2022-08-02T12:59:39.778Z,95295.09
2022-08-02T13:02:17.963Z,95296.34
2022-08-02T13:04:50.344Z,95298.44
2022-08-02T13:07:18.590Z,95292.81
2022-08-02T13:09:46.739Z,95284.81
2022-08-02T13:12:14.403Z,95286.97
2022-08-02T13:14:42.621Z,95289.16
2022-08-02T13:17:12.141Z,95291.41
2022-08-02T13:19:42.836Z,95296.31
2022-08-02T13:22:10.586Z,95291.34
2022-08-02T13:24:55.803Z,95288.66
2022-08-02T13:27:25.220Z,95282.50
2022-08-02T13:29:52.630Z,95276.06
2022-08-02T13:32:19.859Z,95283.00
2022-08-02T13:34:46.900Z,95278.44
2022-08-02T13:37:13.830Z,95271.19
2022-08-02T13:39:40.432Z,95267.25
2022-08-02T13:42:07.219Z,95269.34
2022-08-02T13:44:34.656Z,95273.34
2022-08-02T13:47:02.337Z,95268.69
2022-08-02T13:49:49.943Z,95268.47
2022-08-02T13:52:16.004Z,95257.72
2022-08-02T13:54:43.012Z,95256.53
2022-08-02T13:57:09.726Z,95256.44
2022-08-02T13:59:57.050Z,95252.56
2022-08-02T14:02:23.065Z,95252.06
2022-08-02T14:04:49.788Z,95250.53
2022-08-02T14:07:16.458Z,95250.25
2022-08-02T14:09:43.688Z,95249.53
2022-08-02T14:12:11.212Z,95250.41
2022-08-02T14:14:38.667Z,95245.44
2022-08-02T14:17:05.813Z,95241.94
2022-08-02T14:19:32.723Z,95245.34
2022-08-02T14:22:12.088Z,95241.22
2022-08-02T14:24:46.079Z,95240.50
2022-08-02T14:27:13.455Z,95242.66
2022-08-02T14:29:40.145Z,95247.44
2022-08-02T14:32:07.238Z,95244.34
2022-08-02T14:34:34.090Z,95242.31
2022-08-02T14:37:00.725Z,95234.00
2022-08-02T14:39:27.344Z,95242.22
2022-08-02T14:42:10.499Z,95239.84
2022-08-02T14:44:37.155Z,95235.44
2022-08-02T14:47:05.960Z,95238.16
2022-08-02T14:49:32.720Z,95235.25
2022-08-02T14:51:59.423Z,95241.09
2022-08-02T14:54:30.501Z,95240.25
2022-08-02T14:57:03.002Z,95239.88
2022-08-02T14:59:30.156Z,95241.66
2022-08-02T15:01:57.568Z,95243.81
2022-08-02T15:04:24.825Z,95241.56
2022-08-02T15:06:51.731Z,95240.34
2022-08-02T15:09:18.934Z,95241.38
2022-08-02T15:11:47.105Z,95245.44
2022-08-02T15:14:21.789Z,95238.31
2022-08-02T15:16:57.636Z,95243.69
2022-08-02T15:19:44.935Z,95234.84
2022-08-02T15:22:16.998Z,95234.66
2022-08-02T15:24:46.552Z,95237.59
2022-08-02T15:27:14.685Z,95234.38
2022-08-02T15:29:43.025Z,95242.63
2022-08-02T15:32:10.205Z,95234.41
2022-08-02T15:34:37.169Z,95230.22
2022-08-02T15:37:04.069Z,95231.63
2022-08-02T15:39:30.728Z,95230.09
2022-08-02T15:41:57.538Z,95228.94
2022-08-02T15:44:25.004Z,95227.88
2022-08-02T15:46:53.284Z,95222.66
2022-08-02T15:49:20.921Z,95229.75
2022-08-02T15:51:47.686Z,95228.06
2022-08-02T15:54:14.343Z,95231.81
2022-08-02T15:56:40.976Z,95224.09
2022-08-02T15:59:07.599Z,95232.19
2022-08-02T16:01:37.944Z,95221.97
2022-08-02T16:04:06.925Z,95234.41
2022-08-02T16:06:34.693Z,95223.78
2022-08-02T16:09:01.508Z,95224.00
2022-08-02T16:11:28.255Z,95236.91
2022-08-02T16:13:55.413Z,95232.38
2022-08-02T16:16:33.923Z,95225.16
2022-08-02T16:19:47.489Z,95230.81
2022-08-02T16:21:50.284Z,95224.22
2022-08-02T16:24:17.428Z,95220.59
2022-08-02T16:26:44.059Z,95220.91
2022-08-02T16:29:10.897Z,95212.88
2022-08-02T16:31:41.981Z,95219.84
2022-08-02T16:34:09.386Z,95220.53
2022-08-02T16:36:36.286Z,95214.00
2022-08-02T16:39:03.831Z,95202.50
2022-08-02T16:41:52.227Z,95198.97
2022-08-02T16:44:17.447Z,95203.25
2022-08-02T16:46:45.145Z,95206.19
2022-08-02T16:49:56.634Z,95204.81
2022-08-02T16:51:58.935Z,95202.56
2022-08-02T16:54:25.544Z,95203.28
2022-08-02T16:56:53.264Z,95201.66
2022-08-02T16:59:19.891Z,95202.91
2022-08-02T17:02:10.875Z,95204.63
2022-08-02T17:04:38.681Z,95198.97
2022-08-02T17:07:16.352Z,95201.16
2022-08-02T17:10:04.199Z,95205.56
2022-08-02T17:12:34.139Z,95201.56
2022-08-02T17:15:02.737Z,95205.03
2022-08-02T17:17:39.340Z,95200.41
2022-08-02T17:20:08.912Z,95201.00
2022-08-02T17:22:36.958Z,95201.75
2022-08-02T17:25:04.951Z,95196.31
2022-08-02T17:27:31.732Z,95192.66
2022-08-02T17:29:59.728Z,95204.41
2022-08-02T17:35:15.510Z,95205.66
2022-08-02T17:37:42.487Z,95208.19
2022-08-02T17:40:21.069Z,95205.94
2022-08-02T17:42:50.391Z,95205.50
2022-08-02T17:45:25.867Z,95208.91
2022-08-02T17:48:05.395Z,95211.63
2022-08-02T17:50:34.026Z,95215.50
2022-08-02T17:53:01.100Z,95207.22
2022-08-02T17:55:31.208Z,95220.53
2022-08-02T17:57:59.339Z,95210.75
2022-08-02T18:00:37.543Z,95218.88
2022-08-02T18:03:08.039Z,95216.13
2022-08-02T18:05:41.643Z,95222.75
2022-08-02T18:08:21.319Z,95215.44
2022-08-02T18:10:48.411Z,95214.91
2022-08-02T18:13:15.094Z,95214.91
2022-08-02T18:15:41.716Z,95210.28
2022-08-02T18:18:13.092Z,95211.22
2022-08-02T18:20:41.108Z,95204.22
2022-08-02T18:23:13.431Z,95208.59
2022-08-02T18:25:46.097Z,95201.22
2022-08-02T18:28:13.804Z,95218.38
2022-08-02T18:30:40.804Z,95206.53
2022-08-02T18:33:59.674Z,95214.94
2022-08-02T18:35:55.209Z,95206.13
2022-08-02T18:38:26.868Z,95205.13
2022-08-02T18:40:54.988Z,95224.53
2022-08-02T18:43:25.051Z,95223.56
2022-08-02T18:46:05.720Z,95228.44
2022-08-02T18:48:46.258Z,95225.00
2022-08-02T18:51:14.017Z,95229.66
2022-08-02T18:53:42.211Z,95225.84
2022-08-02T18:56:20.497Z,95224.25
2022-08-02T18:58:55.829Z,95225.59
2022-08-02T19:01:32.670Z,95233.25
2022-08-02T19:04:05.482Z,95229.63
2022-08-02T19:06:35.469Z,95230.31
2022-08-02T19:09:11.454Z,95236.00
2022-08-02T19:11:48.047Z,95231.44
2022-08-02T19:14:24.382Z,95233.66
2022-08-02T19:16:59.385Z,95240.78
2022-08-02T19:19:28.662Z,95234.56
2022-08-02T19:22:18.598Z,95240.00
2022-08-02T19:24:47.792Z,95248.47
2022-08-02T19:27:15.344Z,95243.66
2022-08-02T19:29:48.633Z,95246.28
2022-08-02T19:35:19.168Z,95245.06
2022-08-02T19:37:51.548Z,95245.84
2022-08-02T19:40:24.069Z,95246.69
2022-08-02T19:44:23.586Z,95252.44
2022-08-02T19:45:48.956Z,95249.44
2022-08-02T19:48:17.106Z,95252.44
2022-08-02T19:50:44.088Z,95261.47
2022-08-02T19:53:17.142Z,95251.28
2022-08-02T19:56:00.585Z,95261.09
2022-08-02T19:58:36.646Z,95258.44
2022-08-02T20:01:04.146Z,95259.31
2022-08-02T20:03:50.833Z,95265.31
2022-08-02T20:06:18.317Z,95265.56
2022-08-02T20:08:53.297Z,95258.94
2022-08-02T20:11:24.566Z,95255.56
2022-08-02T20:13:52.318Z,95257.16
2022-08-02T20:16:27.149Z,95262.59
2022-08-02T20:18:56.095Z,95258.75
2022-08-02T20:21:34.155Z,95264.94
2022-08-02T20:24:06.708Z,95259.66
2022-08-02T20:29:43.133Z,95256.00
2022-08-02T20:32:07.906Z,95251.91
2022-08-02T20:34:36.351Z,95259.19
2022-08-02T20:39:51.554Z,95261.09
2022-08-02T20:42:23.496Z,95261.50
2022-08-02T20:44:54.517Z,95252.84
2022-08-02T20:47:28.068Z,95252.44
2022-08-02T20:50:30.271Z,95261.09
2022-08-02T20:52:57.390Z,95256.22
2022-08-02T20:55:25.013Z,95255.69
2022-08-02T20:58:00.486Z,95256.72
2022-08-02T21:00:31.569Z,95256.09
2022-08-02T21:02:59.935Z,95257.25
2022-08-02T21:05:55.330Z,95260.59
2022-08-02T21:08:14.418Z,95254.03
2022-08-02T21:10:50.215Z,95259.63
2022-08-02T21:13:22.806Z,95253.59
2022-08-02T21:15:51.346Z,95250.16
2022-08-02T21:18:25.537Z,95249.94
2022-08-02T21:20:57.638Z,95249.00
2022-08-02T21:23:24.384Z,95245.41
2022-08-02T21:25:57.368Z,95239.13
2022-08-02T21:28:43.788Z,95238.00
2022-08-02T21:31:15.446Z,95243.03
2022-08-02T21:33:56.879Z,95237.81
2022-08-02T21:39:17.295Z,95233.75
2022-08-02T21:41:46.923Z,95234.47
2022-08-02T21:44:20.537Z,95234.28
2022-08-02T21:46:49.953Z,95232.09
2022-08-02T21:49:20.219Z,95230.53
2022-08-02T21:51:48.875Z,95233.44
2022-08-02T21:54:21.273Z,95229.84
2022-08-02T21:56:52.897Z,95233.19
2022-08-02T21:59:25.469Z,95238.22
2022-08-02T22:01:54.823Z,95239.28
2022-08-02T22:04:23.926Z,95234.06
2022-08-02T22:06:50.799Z,95240.34
2022-08-02T22:09:44.081Z,95236.69
2022-08-02T22:12:09.792Z,95239.22
2022-08-02T22:14:39.619Z,95237.50
2022-08-02T22:17:08.487Z,95238.03
2022-08-02T22:19:35.544Z,95241.09
2022-08-02T22:22:02.167Z,95243.16
2022-08-02T22:24:29.734Z,95247.19
2022-08-02T22:26:57.404Z,95250.06
2022-08-02T22:29:24.112Z,95250.19
2022-08-02T22:31:52.023Z,95259.50
2022-08-02T22:34:36.875Z,95252.41
2022-08-02T22:37:07.338Z,95258.59
2022-08-02T22:39:34.568Z,95252.88
2022-08-02T22:42:06.963Z,95258.34
2022-08-02T22:44:35.078Z,95257.97
2022-08-02T22:47:06.980Z,95255.66
2022-08-02T22:49:37.722Z,95261.31
2022-08-02T22:52:12.329Z,95265.78
2022-08-02T22:54:40.936Z,95270.81
2022-08-02T22:57:11.275Z,95267.56
2022-08-02T22:58:39.110Z,95202.66
2022-08-02T22:58:55.826Z,95251.69
2022-08-02T22:58:57.370Z,95241.44
2022-08-02T22:59:03.126Z,95233.41
2022-08-02T22:59:06.990Z,95254.78
2022-08-02T22:59:39.667Z,95270.94
2022-08-02T23:02:07.165Z,95262.31
2022-08-02T23:04:34.071Z,95270.72
2022-08-02T23:07:00.882Z,95267.47
2022-08-02T23:09:27.691Z,95263.47
2022-08-02T23:11:54.398Z,95269.13
2022-08-02T23:14:21.013Z,95266.19
2022-08-02T23:17:06.653Z,95260.06
2022-08-02T23:19:51.315Z,95259.38
2022-08-02T23:22:29.255Z,95261.41
2022-08-02T23:24:57.786Z,95266.00
2022-08-02T23:27:24.655Z,95260.34
2022-08-02T23:29:51.363Z,95264.13
2022-08-02T23:32:18.197Z,95265.78
2022-08-02T23:34:50.069Z,95261.66
2022-08-02T23:37:16.776Z,95266.09
2022-08-02T23:39:43.477Z,95263.63
2022-08-02T23:42:10.264Z,95259.75
2022-08-02T23:44:36.889Z,95266.47
2022-08-02T23:47:03.574Z,95263.31
2022-08-02T23:49:30.290Z,95268.34
2022-08-02T23:52:01.238Z,95261.91
2022-08-02T23:54:28.946Z,95269.44
2022-08-02T23:56:55.899Z,95264.28
2022-08-02T23:59:22.561Z,95261.84
